Time;durP1;ratioP1;P1;durP2;ratioP2;P2;SDS_P1;SDS_P2;PMS_P1;PMS_P2;Temp;Humidity;BMP_temperature;BMP_pressure;BME280_temperature;BME280_humidity;BME280_pressure;Samples;Min_cycle;Max_cycle;Signal;HPM_P1;HPM_P2
2022/12/06 00:02:36;;;;;;;298.73;18.45;;;;;;;0.89;100.00;98555.56;15270080;19;20014;-60
2022/12/06 00:08:01;;;;;;;18.20;13.77;;;;;;;0.90;100.00;98551.94;15268584;19;20018;-61
2022/12/06 00:13:25;;;;;;;21.85;14.18;;;;;;;0.89;100.00;98550.25;15271977;19;20022;-60
2022/12/06 00:18:53;;;;;;;15.88;14.05;;;;;;;0.94;100.00;98554.41;15270869;19;20022;-61
2022/12/06 00:24:21;;;;;;;14.23;12.82;;;;;;;0.94;100.00;98551.78;15266778;19;20348;-60
2022/12/06 00:29:52;;;;;;;13.05;11.65;;;;;;;0.97;100.00;98543.63;15267757;19;20014;-59
2022/12/06 00:35:20;;;;;;;12.52;11.23;;;;;;;0.97;100.00;98546.28;15268032;19;20465;-62
2022/12/06 00:40:44;;;;;;;12.13;10.93;;;;;;;0.97;100.00;98539.16;15269393;19;20018;-60
2022/12/06 00:46:12;;;;;;;13.63;10.60;;;;;;;0.97;100.00;98541.81;15266479;19;20022;-60
2022/12/06 00:51:41;;;;;;;12.07;10.88;;;;;;;0.97;100.00;98543.63;15270658;19;20708;-61
2022/12/06 00:57:06;;;;;;;13.32;12.00;;;;;;;0.98;100.00;98550.63;15263875;19;20473;-60
2022/12/06 01:02:30;;;;;;;13.75;12.25;;;;;;;0.99;100.00;98563.78;15268010;19;20017;-59
2022/12/06 01:07:58;;;;;;;14.30;11.63;;;;;;;0.99;100.00;98558.47;15269292;19;20048;-61
2022/12/06 01:13:22;;;;;;;13.65;11.38;;;;;;;1.00;100.00;98556.69;15268342;19;20018;-62
2022/12/06 01:18:48;;;;;;;12.15;10.80;;;;;;;1.00;100.00;98556.69;15277899;19;20539;-60
2022/12/06 01:24:15;;;;;;;15.35;12.05;;;;;;;1.00;100.00;98568.16;15278699;19;20048;-61
2022/12/06 01:29:46;;;;;;;14.48;12.00;;;;;;;1.00;100.00;98562.00;15276763;19;20078;-61
2022/12/06 01:35:11;;;;;;;13.97;11.97;;;;;;;1.00;100.00;98557.53;15279048;19;20023;-62
2022/12/06 01:40:44;;;;;;;15.15;11.23;;;;;;;1.01;100.00;98555.72;15282351;19;20255;-61
2022/12/06 01:46:21;;;;;;;14.38;11.25;;;;;;;1.02;100.00;98546.81;15278117;19;20036;-61
2022/12/06 01:51:48;;;;;;;14.43;10.50;;;;;;;1.01;100.00;98542.47;15282999;19;20093;-61
2022/12/06 01:57:17;;;;;;;15.23;11.32;;;;;;;1.02;100.00;98545.03;15276591;19;20015;-60
2022/12/06 02:02:42;;;;;;;13.20;10.20;;;;;;;1.03;100.00;98532.59;15276722;19;20032;-60
2022/12/06 02:08:09;;;;;;;12.38;10.20;;;;;;;1.05;100.00;98538.66;15282448;19;20014;-61
2022/12/06 02:13:36;;;;;;;12.18;10.68;;;;;;;1.05;100.00;98544.84;15280049;19;20040;-59
2022/12/06 02:19:12;;;;;;;13.77;10.52;;;;;;;1.04;100.00;98540.47;15276338;19;20491;-61
2022/12/06 02:25:09;;;;;;;11.50;9.55;;;;;;;1.07;100.00;98534.97;15278214;19;20018;-61
2022/12/06 02:30:48;;;;;;;13.98;10.40;;;;;;;1.08;100.00;98533.19;15278321;19;20019;-61
2022/12/06 02:36:17;;;;;;;13.98;10.75;;;;;;;1.10;100.00;98507.41;15274598;19;20048;-62
2022/12/06 02:41:47;;;;;;;11.98;10.63;;;;;;;1.08;100.00;98506.63;15276040;19;20011;-60
2022/12/06 02:47:17;;;;;;;11.35;9.88;;;;;;;1.08;100.00;98496.03;15270323;19;20380;-60
2022/12/06 02:52:47;;;;;;;11.43;10.00;;;;;;;1.09;100.00;98495.09;15277662;19;20023;-61
2022/12/06 02:58:11;;;;;;;11.77;9.18;;;;;;;1.12;100.00;98500.16;15276697;19;20011;-62
2022/12/06 03:04:30;;;;;;;15.40;9.68;;;;;;;1.17;100.00;98500.72;15272663;19;20377;-61
2022/12/06 03:10:06;;;;;;;12.82;9.73;;;;;;;1.16;100.00;98506.16;15278361;19;20097;-59
2022/12/06 03:15:40;;;;;;;236.00;16.88;;;;;;;1.07;100.00;98489.03;15275041;19;20074;-59
2022/12/06 03:21:09;;;;;;;479.98;25.40;;;;;;;0.96;100.00;98488.88;15274344;19;20027;-63
2022/12/06 03:26:45;;;;;;;129.30;18.23;;;;;;;0.95;100.00;98481.84;15271511;19;20014;-61
2022/12/06 03:32:15;;;;;;;1274.72;41.80;;;;;;;0.87;100.00;98477.91;15275445;19;20019;-59
2022/12/06 03:37:41;;;;;;;1179.97;40.47;;;;;;;0.82;100.00;98482.63;15276602;19;20027;-61
2022/12/06 03:43:09;;;;;;;1203.50;39.83;;;;;;;0.80;100.00;98471.28;15272779;19;20037;-61
2022/12/06 03:48:38;;;;;;;1151.57;38.15;;;;;;;0.78;100.00;98473.16;15273005;19;20021;-61
2022/12/06 03:54:06;;;;;;;1312.43;39.75;;;;;;;0.73;100.00;98462.84;15271303;19;20040;-56
2022/12/06 03:59:33;;;;;;;1029.03;32.95;;;;;;;0.75;100.00;98453.00;15274187;19;20022;-59
2022/12/06 04:04:58;;;;;;;1015.00;39.15;;;;;;;0.79;100.00;98451.00;15272411;19;20026;-59
2022/12/06 04:10:23;;;;;;;753.00;33.83;;;;;;;0.82;100.00;98452.63;15271785;19;20098;-58
2022/12/06 04:15:51;;;;;;;395.90;21.95;;;;;;;0.86;100.00;98449.69;15270263;19;20019;-58
2022/12/06 04:28:40;;;;;;;59.88;16.75;;;;;;;0.90;100.00;98445.00;15266729;19;20088;-61
2022/12/06 04:43:54;;;;;;;18.10;12.23;;;;;;;0.98;100.00;98441.88;15265314;19;20081;-58
2022/12/06 04:49:25;;;;;;;15.00;10.75;;;;;;;1.01;100.00;98439.00;15267793;19;20547;-59
2022/12/06 04:54:50;;;;;;;14.75;10.70;;;;;;;1.03;100.00;98447.72;15285305;19;20057;-60
2022/12/06 05:00:17;;;;;;;14.60;10.30;;;;;;;1.04;100.00;98439.66;15285624;19;20023;-56
2022/12/06 05:05:45;;;;;;;11.82;9.40;;;;;;;1.04;100.00;98439.66;15278189;19;20369;-58
2022/12/06 05:11:10;;;;;;;11.88;9.13;;;;;;;1.07;100.00;98435.94;15278713;19;20026;-59
2022/12/06 05:16:35;;;;;;;10.20;8.43;;;;;;;1.10;100.00;98434.88;15272832;19;20021;-61
2022/12/06 05:22:03;;;;;;;9.45;7.93;;;;;;;1.11;100.00;98445.41;15275566;19;20022;-60
2022/12/06 05:27:27;;;;;;;8.82;7.53;;;;;;;1.10;100.00;98438.41;15275737;19;20025;-57
2022/12/06 05:32:53;;;;;;;8.10;6.68;;;;;;;1.07;100.00;98430.66;15279938;19;20022;-58
2022/12/06 05:38:27;;;;;;;8.43;6.78;;;;;;;1.07;100.00;98430.66;15281477;19;20037;-57
2022/12/06 05:43:52;;;;;;;6.20;5.60;;;;;;;1.11;100.00;98437.47;15277236;19;20026;-59
2022/12/06 05:49:17;;;;;;;6.03;5.43;;;;;;;1.08;100.00;98449.09;15281677;19;20595;-61
2022/12/06 05:54:45;;;;;;;7.05;6.35;;;;;;;1.12;100.00;98441.78;15266434;19;20028;-58
2022/12/06 06:00:11;;;;;;;7.10;6.35;;;;;;;1.11;100.00;98431.28;15268154;19;20475;-58
2022/12/06 06:05:36;;;;;;;6.68;5.97;;;;;;;1.09;100.00;98423.44;15268114;19;20029;-57
2022/12/06 06:11:04;;;;;;;7.07;6.00;;;;;;;1.03;100.00;98427.34;15264002;19;20793;-61
2022/12/06 06:16:31;;;;;;;7.38;6.53;;;;;;;1.03;100.00;98422.03;15260084;19;20014;-61
2022/12/06 06:21:55;;;;;;;8.73;7.32;;;;;;;1.02;100.00;98415.03;15263468;19;20532;-58
2022/12/06 06:27:23;;;;;;;7.80;7.00;;;;;;;1.01;100.00;98423.06;15260500;19;20482;-59
2022/12/06 06:47:40;;;;;;;7.70;6.18;;;;;;;1.09;100.00;98418.13;15354195;19;20346;-60
2022/12/06 06:53:11;;;;;;;7.15;6.45;;;;;;;1.05;100.00;98416.63;15354083;19;20082;-82
2022/12/06 06:58:36;;;;;;;8.00;7.20;;;;;;;1.01;100.00;98409.81;15367433;19;20013;-83
2022/12/06 07:04:03;;;;;;;9.02;8.13;;;;;;;1.00;100.00;98405.47;15361981;19;20330;-83
2022/12/06 07:09:29;;;;;;;9.13;8.20;;;;;;;0.95;100.00;98411.06;15361795;19;20014;-82
2022/12/06 07:14:53;;;;;;;9.10;8.20;;;;;;;0.95;100.00;98415.53;15360883;19;20407;-82
2022/12/06 07:20:21;;;;;;;9.30;8.40;;;;;;;0.96;100.00;98409.28;15363813;19;20035;-82
2022/12/06 07:25:45;;;;;;;9.25;7.70;;;;;;;0.92;100.00;98412.13;15364996;19;20013;-82
2022/12/06 07:31:11;;;;;;;10.10;8.65;;;;;;;0.92;100.00;98409.47;15358354;19;20022;-82
2022/12/06 07:36:39;;;;;;;9.48;8.07;;;;;;;0.91;100.00;98409.59;15357055;19;20012;-83
2022/12/06 07:47:41;;;;;;;9.90;8.48;;;;;;;0.92;100.00;98401.50;15310658;19;20383;-82
2022/12/06 07:53:15;;;;;;;8.80;7.90;;;;;;;0.90;100.00;98402.56;15298805;19;20022;-82
2022/12/06 07:58:40;;;;;;;9.05;8.13;;;;;;;0.93;100.00;98405.03;15298654;19;20034;-82
2022/12/06 08:04:07;;;;;;;10.95;8.38;;;;;;;0.94;100.00;98404.09;15299870;19;20126;-83
2022/12/06 08:09:34;;;;;;;9.80;8.80;;;;;;;0.94;100.00;98397.91;15300331;19;20017;-82
2022/12/06 08:14:59;;;;;;;11.15;9.00;;;;;;;0.92;100.00;98401.50;15299449;19;20722;-81
2022/12/06 08:20:24;;;;;;;10.82;8.80;;;;;;;0.94;100.00;98408.53;15300798;19;20011;-82
2022/12/06 08:25:51;;;;;;;10.73;8.68;;;;;;;0.95;100.00;98407.56;15301742;19;20031;-83
2022/12/06 08:31:18;;;;;;;8.77;7.75;;;;;;;0.95;100.00;98400.44;15298859;19;20372;-81
2022/12/06 08:36:42;;;;;;;8.10;7.28;;;;;;;0.97;100.00;98405.69;15296416;19;20412;-81
2022/12/06 08:42:09;;;;;;;8.00;7.05;;;;;;;0.98;100.00;98402.91;15325636;19;20029;-81
2022/12/06 08:47:41;;;;;;;7.68;6.65;;;;;;;1.01;100.00;98399.19;15357244;19;20037;-80
2022/12/06 08:53:12;;;;;;;6.53;5.93;;;;;;;1.01;100.00;98394.75;15353491;19;20014;-81
2022/12/06 08:58:40;;;;;;;6.95;5.75;;;;;;;1.02;100.00;98393.81;15356817;19;20003;-81
2022/12/06 09:04:06;;;;;;;6.40;5.80;;;;;;;1.03;100.00;98392.84;15366545;19;20086;-82
2022/12/06 09:09:31;;;;;;;5.60;5.00;;;;;;;1.05;100.00;98395.41;15334366;19;20023;-82
2022/12/06 09:14:58;;;;;;;5.50;5.00;;;;;;;1.07;100.00;98385.53;15295628;19;20019;-82
2022/12/06 09:20:23;;;;;;;5.43;4.93;;;;;;;1.08;100.00;98389.91;15293292;19;20659;-81
2022/12/06 09:25:49;;;;;;;5.28;4.85;;;;;;;1.07;100.00;98386.38;15296430;19;20016;-82
2022/12/06 09:31:17;;;;;;;5.25;4.75;;;;;;;1.12;100.00;98396.69;15293545;19;20086;-82
2022/12/06 09:36:42;;;;;;;4.57;4.18;;;;;;;1.14;100.00;98386.81;15301079;19;20011;-82
2022/12/06 09:42:37;;;;;;;4.60;4.20;;;;;;;1.14;100.00;98380.69;15299932;19;20014;-80
2022/12/06 09:48:25;;;;;;;4.20;3.90;;;;;;;1.14;100.00;98385.97;15290040;19;20085;-80
2022/12/06 09:54:10;;;;;;;3.92;3.63;;;;;;;1.16;100.00;98381.44;15291145;19;20092;-80
2022/12/06 09:59:47;;;;;;;3.65;3.33;;;;;;;1.15;100.00;98374.41;15288262;19;20081;-80
2022/12/06 10:05:41;;;;;;;3.83;3.53;;;;;;;1.11;100.00;98367.59;15290654;19;20373;-79
2022/12/06 10:11:20;;;;;;;4.10;3.80;;;;;;;1.09;100.00;98367.72;15284052;19;20070;-80
2022/12/06 10:16:59;;;;;;;4.25;3.72;;;;;;;1.05;100.00;98359.13;15286966;19;20024;-79
2022/12/06 10:22:36;;;;;;;4.43;4.03;;;;;;;1.04;100.00;98351.25;15288339;19;20353;-79
2022/12/06 10:28:09;;;;;;;4.70;4.30;;;;;;;1.01;100.00;98360.28;15288745;19;20335;-82
2022/12/06 10:33:44;;;;;;;4.30;4.00;;;;;;;0.99;100.00;98359.53;15291199;19;20310;-82
2022/12/06 10:39:17;;;;;;;5.15;4.70;;;;;;;0.95;100.00;98367.78;15288535;19;20074;-82
2022/12/06 10:44:47;;;;;;;5.38;4.95;;;;;;;0.88;100.00;98368.19;15281284;19;20042;-82
2022/12/06 10:50:15;;;;;;;5.50;5.00;;;;;;;0.85;100.00;98372.84;15295126;19;20011;-80
2022/12/06 10:55:49;;;;;;;5.68;5.03;;;;;;;0.81;100.00;98377.50;15291417;19;20035;-85
2022/12/06 11:01:21;;;;;;;5.47;4.97;;;;;;;0.73;100.00;98379.81;15291998;19;20034;-82
2022/12/06 11:06:51;;;;;;;6.30;5.70;;;;;;;0.68;100.00;98385.41;15291832;19;20015;-84
2022/12/06 11:12:32;;;;;;;6.30;5.70;;;;;;;0.60;100.00;98377.97;15289111;19;20343;-84
2022/12/06 11:18:04;;;;;;;6.60;6.00;;;;;;;0.59;100.00;98384.22;15290990;19;20497;-83
2022/12/06 11:23:34;;;;;;;6.95;6.35;;;;;;;0.63;100.00;98387.50;15244004;19;20018;-82
2022/12/06 11:29:05;;;;;;;6.68;6.07;;;;;;;0.65;100.00;98390.91;15300987;19;20022;-83
2022/12/06 11:34:35;;;;;;;5.50;5.00;;;;;;;0.65;100.00;98387.44;15312546;19;20014;-83
2022/12/06 11:40:08;;;;;;;5.45;5.05;;;;;;;0.65;100.00;98379.47;15313809;19;20018;-82
2022/12/06 11:45:41;;;;;;;4.80;4.40;;;;;;;0.66;100.00;98376.72;15311026;19;20553;-83
2022/12/06 11:51:09;;;;;;;4.90;4.50;;;;;;;0.67;100.00;98382.84;15290428;19;20026;-80
2022/12/06 11:56:37;;;;;;;4.40;4.10;;;;;;;0.67;100.00;98374.88;15291617;19;20014;-84
2022/12/06 12:02:06;;;;;;;4.20;3.90;;;;;;;0.75;100.00;98365.50;15356129;19;20025;-83
2022/12/06 12:07:36;;;;;;;4.28;3.97;;;;;;;0.75;100.00;98354.06;15311499;19;20368;-81
2022/12/06 12:13:47;;;;;;;4.70;4.30;;;;;;;0.74;100.00;98349.69;15318207;19;20019;-81
2022/12/06 12:19:32;;;;;;;5.07;4.68;;;;;;;0.72;100.00;98341.81;15309162;19;20593;-83
2022/12/06 12:25:00;;;;;;;5.07;4.68;;;;;;;0.72;100.00;98356.91;15311326;19;20022;-81
2022/12/06 12:30:38;;;;;;;4.20;3.90;;;;;;;0.71;100.00;98352.53;15297640;19;20010;-84
2022/12/06 12:36:29;;;;;;;4.13;3.72;;;;;;;0.69;100.00;98357.94;15292802;19;20018;-83
2022/12/06 12:41:55;;;;;;;;;;;;;;;0.70;100.00;98348.19;15304906;19;20049;-83
2022/12/06 12:47:25;;;;;;;4.10;3.58;;;;;;;0.72;100.00;98347.13;15301493;19;19918;-83
2022/12/06 12:53:00;;;;;;;3.58;3.28;;;;;;;0.73;100.00;98340.03;15292861;19;20019;-84
2022/12/06 12:58:26;;;;;;;3.50;3.20;;;;;;;0.73;100.00;98332.91;15295709;19;20007;-82
2022/12/06 13:03:54;;;;;;;3.67;3.38;;;;;;;0.75;100.00;98327.53;15307665;19;20015;-82
2022/12/06 13:09:31;;;;;;;2.95;2.75;;;;;;;0.74;100.00;98326.66;15301703;19;20027;-85
2022/12/06 13:15:02;;;;;;;3.13;2.85;;;;;;;0.76;100.00;98323.94;15297140;19;20086;-82
2022/12/06 13:20:31;;;;;;;3.30;3.00;;;;;;;0.78;100.00;98322.00;15295375;19;20027;-83
2022/12/06 13:26:12;;;;;;;3.03;2.70;;;;;;;0.78;100.00;98322.00;15292617;19;20018;-84
2022/12/06 13:31:40;;;;;;;2.85;2.65;;;;;;;0.79;100.00;98315.75;15284303;19;20038;-82
2022/12/06 13:37:04;;;;;;;2.80;2.60;;;;;;;0.79;100.00;98320.22;15288705;19;20019;-83
2022/12/06 13:42:50;;;;;;;2.83;2.63;;;;;;;0.81;100.00;98320.97;15290275;19;20027;-84
2022/12/06 13:48:44;;;;;;;2.80;2.60;;;;;;;0.79;100.00;98321.06;14782088;19;10000341;-84
2022/12/06 13:54:40;;;;;;;2.85;2.65;;;;;;;0.80;100.00;98317.44;15283153;19;20162;-82
2022/12/06 14:00:48;;;;;;;2.38;2.28;;;;;;;0.77;100.00;98328.25;15289786;19;20475;-83
2022/12/06 14:06:15;;;;;;;3.17;2.88;;;;;;;0.73;100.00;98327.63;15286469;19;20011;-82
2022/12/06 14:11:41;;;;;;;2.65;2.45;;;;;;;0.72;100.00;98315.31;15284711;19;20021;-83
2022/12/06 14:17:11;;;;;;;2.80;2.60;;;;;;;0.73;100.00;98332.09;15291283;19;20022;-82
2022/12/06 14:22:56;;;;;;;2.80;2.60;;;;;;;0.72;100.00;98333.03;15290706;19;20049;-83
2022/12/06 14:28:21;;;;;;;2.60;2.40;;;;;;;0.73;100.00;98340.88;15295750;19;20027;-83
2022/12/06 14:33:51;;;;;;;3.03;2.83;;;;;;;0.74;100.00;98333.78;15291392;19;20021;-83
2022/12/06 14:39:23;;;;;;;2.95;2.75;;;;;;;0.74;100.00;98345.22;15295023;19;20022;-84
2022/12/06 14:44:50;;;;;;;2.70;2.50;;;;;;;0.76;100.00;98331.88;15285840;19;20006;-85
2022/12/06 14:50:35;;;;;;;2.70;2.50;;;;;;;0.75;100.00;98336.31;15287404;19;20078;-82
2022/12/06 14:56:03;;;;;;;2.90;2.70;;;;;;;0.76;100.00;98334.53;15287742;19;20010;-81
2022/12/06 15:01:32;;;;;;;2.92;2.72;;;;;;;0.75;100.00;98354.06;15295298;19;20023;-84
2022/12/06 15:07:01;;;;;;;3.40;3.10;;;;;;;0.77;100.00;98349.47;15308368;19;20017;-85
2022/12/06 15:18:23;;;;;;;3.10;2.80;;;;;;;0.79;100.00;98365.31;15308231;19;20086;-82
2022/12/06 15:23:56;;;;;;;3.47;3.17;;;;;;;0.78;100.00;98356.47;15315355;19;20015;-84
2022/12/06 15:29:22;;;;;;;3.30;3.00;;;;;;;0.79;100.00;98360.84;15306278;19;20010;-84
2022/12/06 15:34:48;;;;;;;3.20;2.90;;;;;;;0.82;100.00;98355.34;15302224;19;20034;-84
2022/12/06 15:40:18;;;;;;;3.20;2.92;;;;;;;0.83;100.00;98348.22;15310584;19;20015;-86
2022/12/06 15:45:44;;;;;;;3.28;2.97;;;;;;;0.84;100.00;98352.56;15319685;19;20046;-80
2022/12/06 15:51:16;;;;;;;3.45;3.15;;;;;;;0.85;100.00;98347.19;15328485;19;20492;-83
2022/12/06 15:56:45;;;;;;;4.05;3.63;;;;;;;0.87;100.00;98358.53;15322293;19;20015;-84
2022/12/06 16:08:17;;;;;;;4.13;3.72;;;;;;;0.88;100.00;98360.22;15325188;19;20105;-83
2022/12/06 16:13:46;;;;;;;4.35;3.90;;;;;;;0.91;100.00;98372.44;15327990;19;20003;-81
2022/12/06 16:19:13;;;;;;;4.45;4.05;;;;;;;0.92;100.00;98375.00;15332613;19;19995;-83
2022/12/06 16:24:39;;;;;;;4.38;3.97;;;;;;;0.96;100.00;98385.41;15323773;19;20022;-83
2022/12/06 16:30:14;;;;;;;4.55;4.13;;;;;;;0.96;100.00;98370.31;15308714;19;20050;-82
2022/12/06 16:35:40;;;;;;;4.55;4.13;;;;;;;0.98;100.00;98378.19;15307327;19;20082;-82
2022/12/06 16:41:05;;;;;;;6.25;5.53;;;;;;;0.98;100.00;98378.19;15306176;19;20031;-84
2022/12/06 16:46:35;;;;;;;6.32;5.20;;;;;;;0.97;100.00;98373.84;15309060;19;20025;-83
2022/12/06 16:52:00;;;;;;;7.53;6.00;;;;;;;0.96;100.00;98372.97;15307623;19;20527;-82
2022/12/06 16:57:25;;;;;;;8.07;6.43;;;;;;;0.97;100.00;98385.28;15293620;19;20069;-82
2022/12/06 17:02:54;;;;;;;8.38;6.60;;;;;;;0.97;100.00;98381.81;15307926;19;20035;-81
2022/12/06 17:08:19;;;;;;;8.63;6.70;;;;;;;1.00;100.00;98378.94;15303032;19;20021;-84
2022/12/06 17:13:44;;;;;;;7.80;6.32;;;;;;;0.99;100.00;98374.59;15299254;19;20014;-80
2022/12/06 17:19:17;;;;;;;9.15;6.75;;;;;;;0.99;100.00;98364.81;15293008;19;20548;-81
2022/12/06 17:24:45;;;;;;;7.32;6.20;;;;;;;1.01;100.00;98368.22;15295218;19;20074;-81
2022/12/06 17:30:16;;;;;;;7.13;6.18;;;;;;;1.03;100.00;98376.94;15293079;19;20031;-85
2022/12/06 17:35:45;;;;;;;7.07;6.38;;;;;;;1.06;100.00;98373.22;15296296;19;20006;-84
2022/12/06 17:46:53;;;;;;;6.72;6.03;;;;;;;1.09;100.00;98378.34;15302652;19;20018;-83
2022/12/06 17:52:21;;;;;;;6.82;6.13;;;;;;;1.10;100.00;98374.72;15298989;19;20476;-79
2022/12/06 17:57:46;;;;;;;7.80;6.75;;;;;;;1.11;100.00;98373.78;15299862;19;20018;-83
2022/12/06 18:03:11;;;;;;;7.18;6.32;;;;;;;1.13;100.00;98371.84;15293353;19;20712;-81
2022/12/06 18:08:39;;;;;;;7.50;6.78;;;;;;;1.15;100.00;98375.25;15290230;19;20024;-78
2022/12/06 18:14:05;;;;;;;7.93;6.60;;;;;;;1.15;100.00;98367.28;15295612;19;20014;-83
2022/12/06 18:19:30;;;;;;;7.88;6.82;;;;;;;1.18;100.00;98376.84;15304492;19;20018;-81
2022/12/06 18:25:01;;;;;;;7.72;6.70;;;;;;;1.19;100.00;98375.91;15358159;19;20011;-81
2022/12/06 18:30:27;;;;;;;12.00;9.00;;;;;;;1.19;100.00;98382.06;15297801;19;20003;-81
2022/12/06 18:35:52;;;;;;;35.10;27.00;;;;;;;1.18;100.00;98379.50;15295185;19;20010;-81
2022/12/06 18:41:24;;;;;;;11.57;8.30;;;;;;;1.18;100.00;98359.13;15295517;19;20018;-81
2022/12/06 18:46:52;;;;;;;7.00;6.25;;;;;;;1.19;100.00;98366.16;15301310;19;20010;-82
2022/12/06 18:52:18;;;;;;;5.72;5.18;;;;;;;1.20;100.00;98373.16;15297604;19;20018;-80
2022/12/06 18:57:46;;;;;;;6.57;5.90;;;;;;;1.20;100.00;98367.84;15292720;19;20093;-82
2022/12/06 19:03:12;;;;;;;8.02;6.15;;;;;;;1.21;100.00;98361.59;15304273;19;20031;-80
2022/12/06 19:08:39;;;;;;;7.50;6.18;;;;;;;1.20;100.00;98372.28;15286263;19;20081;-81
2022/12/06 19:14:08;;;;;;;8.13;6.43;;;;;;;1.19;100.00;98368.81;15286820;19;20021;-80
2022/12/06 19:19:34;;;;;;;7.55;6.78;;;;;;;1.21;100.00;98358.06;15279682;19;20076;-82
2022/12/06 19:24:58;;;;;;;7.45;6.28;;;;;;;1.20;100.00;98359.03;15265429;19;20019;-80
2022/12/06 19:30:26;;;;;;;7.25;6.53;;;;;;;1.20;100.00;98361.69;15289206;19;20010;-82
2022/12/06 19:35:51;;;;;;;7.47;6.68;;;;;;;1.19;100.00;98370.59;15292436;19;20407;-81
2022/12/06 19:41:19;;;;;;;9.60;7.20;;;;;;;1.48;100.00;98373.91;15295349;19;20022;-83
2022/12/06 19:46:49;;;;;;;5.80;5.25;;;;;;;1.46;100.00;98356.41;15300613;19;20027;-81
2022/12/06 19:52:21;;;;;;;9.55;6.38;;;;;;;1.47;100.00;98348.31;15307663;19;20031;-81
2022/12/06 19:57:48;;;;;;;7.30;6.00;;;;;;;1.42;100.00;98350.47;15288611;19;20082;-82
2022/12/06 20:03:16;;;;;;;7.45;6.07;;;;;;;1.40;100.00;98344.41;15295656;19;20017;-82
2022/12/06 20:08:43;;;;;;;7.40;6.47;;;;;;;1.40;100.00;98338.25;15296651;19;20024;-82
2022/12/06 20:14:10;;;;;;;7.40;6.63;;;;;;;1.41;100.00;98332.00;15297494;19;20038;-82
2022/12/06 20:19:38;;;;;;;7.88;7.07;;;;;;;1.40;100.00;98331.13;15297398;19;20010;-83
2022/12/06 20:25:03;;;;;;;6.88;6.18;;;;;;;1.39;100.00;98318.81;15301178;19;20073;-83
2022/12/06 20:30:32;;;;;;;7.40;6.70;;;;;;;1.46;100.00;98325.41;15295107;19;20010;-83
2022/12/06 20:35:59;;;;;;;7.45;6.75;;;;;;;1.65;100.00;98329.44;15298168;19;20085;-84
2022/12/06 20:41:28;;;;;;;8.32;7.53;;;;;;;1.63;100.00;98328.69;15299223;19;20082;-83
2022/12/06 20:46:56;;;;;;;8.98;7.55;;;;;;;1.69;100.00;98320.31;15300433;19;20026;-83
2022/12/06 20:52:25;;;;;;;7.47;6.78;;;;;;;1.77;100.00;98320.59;15293787;19;20010;-84
2022/12/06 20:57:51;;;;;;;6.47;5.88;;;;;;;1.75;100.00;98314.53;15289417;19;20025;-84
2022/12/06 21:03:16;;;;;;;6.65;6.05;;;;;;;1.63;100.00;98310.09;15297967;19;20026;-84
2022/12/06 21:08:45;;;;;;;6.20;5.60;;;;;;;1.60;100.00;98315.63;15298253;19;20058;-83
2022/12/06 21:14:12;;;;;;;6.13;5.53;;;;;;;1.73;100.00;98315.63;15292756;19;20452;-83
2022/12/06 21:19:36;;;;;;;5.70;5.20;;;;;;;1.70;100.00;98311.38;15293461;19;20032;-84
2022/12/06 21:25:04;;;;;;;5.55;5.05;;;;;;;1.64;100.00;98309.13;15296529;19;20011;-84
2022/12/06 21:30:28;;;;;;;6.15;5.55;;;;;;;1.63;100.00;98310.09;15290716;19;20046;-84
2022/12/06 21:35:55;;;;;;;5.60;5.10;;;;;;;1.75;100.00;98298.59;15334669;19;20030;-83
2022/12/06 21:41:23;;;;;;;5.78;5.28;;;;;;;1.88;100.00;98308.38;15295316;19;20029;-84
2022/12/06 21:46:47;;;;;;;5.32;4.80;;;;;;;1.85;100.00;98299.66;15288821;19;20018;-84
2022/12/06 21:52:13;;;;;;;5.80;5.25;;;;;;;1.85;100.00;98297.00;15278454;19;20285;-84
2022/12/06 21:57:41;;;;;;;5.28;4.78;;;;;;;1.81;100.00;98286.69;15280996;19;20042;-84
2022/12/06 22:03:06;;;;;;;5.50;5.00;;;;;;;1.76;100.00;98289.69;15281758;19;20429;-84
2022/12/06 22:08:40;;;;;;;5.57;5.07;;;;;;;1.80;100.00;98285.88;15304593;19;20006;-84
2022/12/06 22:14:08;;;;;;;5.13;4.65;;;;;;;1.65;100.00;98273.66;15291025;19;20029;-84
2022/12/06 22:19:34;;;;;;;5.47;4.85;;;;;;;1.84;100.00;98282.00;15288584;19;20295;-85
2022/12/06 22:24:59;;;;;;;4.80;4.30;;;;;;;1.77;100.00;98282.56;15285581;19;20059;-84
2022/12/06 22:30:26;;;;;;;5.95;4.80;;;;;;;1.64;100.00;98274.63;15285587;19;20027;-84
2022/12/06 22:35:51;;;;;;;5.00;4.50;;;;;;;1.88;100.00;98271.16;15285854;19;20031;-83
2022/12/06 22:41:16;;;;;;;5.03;4.07;;;;;;;1.82;100.00;98256.53;15282563;19;20021;-83
2022/12/06 22:46:45;;;;;;;5.65;5.15;;;;;;;1.70;100.00;98252.94;15291290;19;20024;-83
2022/12/06 22:52:09;;;;;;;6.15;5.47;;;;;;;1.72;100.00;98261.63;15294045;19;20109;-84
2022/12/06 22:57:35;;;;;;;5.70;4.97;;;;;;;1.73;100.00;98260.69;15287332;19;20046;-81
2022/12/06 23:03:03;;;;;;;5.57;5.03;;;;;;;1.53;100.00;98262.94;15282822;19;20020;-84
2022/12/06 23:08:28;;;;;;;5.95;5.40;;;;;;;1.51;100.00;98261.38;15285635;19;20409;-84
2022/12/06 23:13:53;;;;;;;5.50;5.00;;;;;;;1.48;100.00;98246.47;15299134;19;20488;-83
2022/12/06 23:19:21;;;;;;;5.68;5.18;;;;;;;1.48;100.00;98245.66;15306585;19;20014;-84
2022/12/06 23:24:45;;;;;;;5.90;5.10;;;;;;;1.39;100.00;98247.13;15302417;19;20010;-85
2022/12/06 23:30:10;;;;;;;6.28;5.30;;;;;;;1.29;100.00;98235.47;15304495;19;20760;-84
2022/12/06 23:35:37;;;;;;;4.93;4.40;;;;;;;1.31;100.00;98238.88;15303163;19;20729;-84
2022/12/06 23:41:02;;;;;;;4.95;4.40;;;;;;;1.23;100.00;98239.41;15308020;19;20015;-84
2022/12/06 23:46:28;;;;;;;5.22;4.50;;;;;;;1.02;100.00;98231.97;15317530;19;20355;-83
2022/12/06 23:51:57;;;;;;;4.75;4.25;;;;;;;0.97;100.00;98226.13;15309698;19;20023;-83
2022/12/06 23:57:22;;;;;;;5.97;3.97;;;;;;;0.80;100.00;98219.34;15300013;19;20031;-83
